createdAt,value
2018-05-24T00:00:16.220Z,0
2018-05-24T00:01:38.038Z,0
2018-05-24T00:02:59.573Z,0
2018-05-24T00:04:21.376Z,0
2018-05-24T00:05:43.165Z,0
2018-05-24T00:07:04.702Z,0
2018-05-24T00:08:26.755Z,0
2018-05-24T00:09:48.816Z,0
2018-05-24T00:11:10.884Z,0
2018-05-24T00:12:32.951Z,0
2018-05-24T00:13:54.769Z,0
2018-05-24T00:15:16.310Z,0
2018-05-24T00:16:38.111Z,0
2018-05-24T00:17:59.921Z,0
2018-05-24T00:19:21.989Z,0
2018-05-24T00:20:44.050Z,0
2018-05-24T00:22:05.847Z,0
2018-05-24T00:23:27.898Z,0
2018-05-24T00:24:49.977Z,0
2018-05-24T00:26:12.038Z,0
2018-05-24T00:27:33.571Z,0
2018-05-24T00:28:55.633Z,0
2018-05-24T00:30:17.693Z,0
2018-05-24T00:31:39.752Z,0
2018-05-24T00:33:01.585Z,0
2018-05-24T00:34:23.393Z,0
2018-05-24T00:35:45.459Z,0
2018-05-24T00:37:06.995Z,0
2018-05-24T00:38:28.522Z,0
2018-05-24T00:39:50.582Z,0
2018-05-24T00:41:12.380Z,0
2018-05-24T00:42:34.465Z,0
2018-05-24T00:43:56.000Z,0
2018-05-24T00:45:18.065Z,0
2018-05-24T00:46:39.863Z,0
2018-05-24T00:48:01.668Z,0
2018-05-24T00:49:23.490Z,0
2018-05-24T00:50:45.727Z,0
2018-05-24T00:52:07.809Z,0
2018-05-24T01:06:55.830Z,0
2018-05-24T01:08:17.875Z,0
2018-05-24T01:09:39.942Z,0
2018-05-24T01:11:01.792Z,0
2018-05-24T01:12:23.817Z,0
2018-05-24T01:13:45.856Z,0
2018-05-24T01:15:07.909Z,0
2018-05-24T01:16:29.701Z,0
2018-05-24T01:17:51.740Z,0
2018-05-24T01:19:13.773Z,0
2018-05-24T01:20:35.817Z,0
2018-05-24T01:21:57.593Z,0
2018-05-24T01:23:19.637Z,0
2018-05-24T01:24:41.661Z,0
2018-05-24T01:26:03.704Z,0
2018-05-24T01:27:25.813Z,0
2018-05-24T01:28:47.587Z,0
2018-05-24T01:30:09.611Z,0
2018-05-24T01:31:31.654Z,0
2018-05-24T01:32:53.180Z,0
2018-05-24T01:34:15.211Z,0
2018-05-24T01:35:37.264Z,0
2018-05-24T01:36:59.054Z,0
2018-05-24T01:38:21.087Z,0
2018-05-24T01:39:43.146Z,0
2018-05-24T01:41:04.928Z,0
2018-05-24T01:42:26.964Z,0
2018-05-24T01:43:49.022Z,0
2018-05-24T01:45:11.063Z,0
2018-05-24T01:46:33.103Z,0
2018-05-24T01:47:55.155Z,0
2018-05-24T01:49:16.931Z,0
2018-05-24T01:50:38.949Z,0
2018-05-24T01:52:00.984Z,0
2018-05-24T01:53:23.016Z,0
2018-05-24T01:54:44.781Z,0
2018-05-24T01:56:06.619Z,0
2018-05-24T01:57:28.403Z,0
2018-05-24T01:58:50.206Z,0
2018-05-24T02:00:12.261Z,0
2018-05-24T02:01:34.322Z,0
2018-05-24T02:02:56.116Z,0
2018-05-24T02:04:17.931Z,0
2018-05-24T02:05:39.959Z,0
2018-05-24T02:07:01.995Z,0
2018-05-24T02:08:24.042Z,0
2018-05-24T02:09:46.083Z,0
2018-05-24T02:11:08.124Z,0
2018-05-24T02:12:29.894Z,0
2018-05-24T02:13:51.676Z,0
2018-05-24T02:15:13.740Z,0
2018-05-24T02:16:35.784Z,0
2018-05-24T02:17:57.842Z,0
2018-05-24T02:19:19.641Z,0
2018-05-24T02:20:41.700Z,0
2018-05-24T02:22:03.482Z,0
2018-05-24T02:23:25.514Z,0
2018-05-24T02:24:47.591Z,0
2018-05-24T02:26:09.641Z,0
2018-05-24T02:27:31.685Z,0
2018-05-24T02:28:53.521Z,0
2018-05-24T02:30:15.589Z,0
2018-05-24T02:31:37.631Z,0
2018-05-24T02:32:59.696Z,0
2018-05-24T02:34:21.758Z,0
2018-05-24T02:35:43.554Z,0
2018-05-24T02:37:05.620Z,0
2018-05-24T02:38:27.437Z,0
2018-05-24T02:39:49.219Z,0
2018-05-24T02:41:11.008Z,0
2018-05-24T02:42:33.072Z,0
2018-05-24T02:43:55.138Z,0
2018-05-24T02:45:16.923Z,0
2018-05-24T02:46:38.980Z,0
2018-05-24T02:48:00.502Z,0
2018-05-24T02:49:22.542Z,0
2018-05-24T02:50:44.324Z,0
2018-05-24T02:52:06.109Z,0
2018-05-24T02:53:28.153Z,0
2018-05-24T02:54:50.206Z,0
2018-05-24T02:56:12.334Z,0
2018-05-24T02:57:34.421Z,0
2018-05-24T02:58:56.467Z,0
2018-05-24T03:00:18.509Z,5
2018-05-24T03:01:40.757Z,5
2018-05-24T03:03:02.580Z,5
2018-05-24T03:04:24.638Z,5
2018-05-24T03:05:46.671Z,5
2018-05-24T03:07:08.462Z,5
2018-05-24T03:08:30.510Z,5
2018-05-24T03:09:52.574Z,10
2018-05-24T03:11:14.629Z,10
2018-05-24T03:12:36.668Z,10
2018-05-24T03:13:58.724Z,10
2018-05-24T03:15:20.779Z,15
2018-05-24T03:16:42.818Z,15
2018-05-24T03:18:04.861Z,15
2018-05-24T03:19:26.895Z,15
2018-05-24T03:20:48.664Z,20
2018-05-24T03:22:10.700Z,20
2018-05-24T03:23:32.730Z,20
2018-05-24T03:24:54.762Z,25
2018-05-24T03:26:16.806Z,25
2018-05-24T03:27:38.850Z,25
2018-05-24T03:29:00.615Z,30
2018-05-24T03:30:22.408Z,30
2018-05-24T03:31:44.446Z,30
2018-05-24T03:33:06.489Z,35
2018-05-24T03:34:28.288Z,35
2018-05-24T03:35:50.058Z,40
2018-05-24T03:37:12.159Z,40
2018-05-24T03:38:34.210Z,40
2018-05-24T03:39:55.971Z,45
2018-05-24T03:41:17.742Z,45
2018-05-24T03:42:39.791Z,50
2018-05-24T03:44:01.842Z,50
2018-05-24T03:45:23.620Z,55
2018-05-24T03:46:45.652Z,55
2018-05-24T03:48:07.447Z,60
2018-05-24T03:49:29.215Z,60
2018-05-24T03:50:51.244Z,60
2018-05-24T03:52:13.506Z,65
2018-05-24T03:53:35.682Z,65
2018-05-24T03:54:57.212Z,70
2018-05-24T03:56:19.263Z,70
2018-05-24T03:57:41.110Z,75
2018-05-24T03:59:03.156Z,75
2018-05-24T04:00:25.210Z,80
2018-05-24T04:01:47.279Z,80
2018-05-24T04:03:09.314Z,85
2018-05-24T04:04:31.386Z,85
2018-05-24T04:05:53.708Z,85
2018-05-24T04:07:15.519Z,85
2018-05-24T04:08:37.569Z,90
2018-05-24T04:09:59.338Z,90
2018-05-24T04:11:21.135Z,95
2018-05-24T04:12:43.198Z,95
2018-05-24T04:14:05.360Z,100
2018-05-24T04:15:27.394Z,100
2018-05-24T04:16:49.431Z,105
2018-05-24T04:18:11.482Z,105
2018-05-24T04:19:33.525Z,110
2018-05-24T04:20:55.595Z,110
2018-05-24T04:22:17.638Z,115
2018-05-24T04:23:39.586Z,115
2018-05-24T04:25:01.648Z,120
2018-05-24T04:26:23.693Z,120
2018-05-24T04:27:45.720Z,125
2018-05-24T04:29:07.780Z,125
2018-05-24T04:30:29.555Z,130
2018-05-24T04:31:51.343Z,130
2018-05-24T04:33:13.854Z,135
2018-05-24T04:34:35.896Z,135
2018-05-24T04:35:57.928Z,140
2018-05-24T04:37:19.705Z,140
2018-05-24T04:38:41.747Z,145
2018-05-24T04:40:03.792Z,145
2018-05-24T04:41:25.611Z,150
2018-05-24T04:42:47.389Z,155
2018-05-24T04:44:09.170Z,155
2018-05-24T04:45:31.085Z,160
2018-05-24T04:46:53.133Z,165
2018-05-24T04:48:15.173Z,165
2018-05-24T04:49:37.202Z,175
2018-05-24T04:50:59.250Z,185
2018-05-24T04:52:21.473Z,195
2018-05-24T04:53:43.508Z,200
2018-05-24T04:55:05.560Z,220
2018-05-24T04:56:27.639Z,370
2018-05-24T04:57:49.689Z,565
2018-05-24T04:59:11.453Z,600
2018-05-24T05:00:33.505Z,610
2018-05-24T05:01:55.267Z,635
2018-05-24T05:03:17.326Z,645
2018-05-24T05:04:39.385Z,650
2018-05-24T05:06:01.448Z,660
2018-05-24T05:07:23.536Z,670
2018-05-24T05:08:45.326Z,705
2018-05-24T05:10:07.175Z,730
2018-05-24T05:11:29.227Z,735
2018-05-24T05:12:51.269Z,750
2018-05-24T05:14:13.331Z,770
2018-05-24T05:15:35.579Z,825
2018-05-24T05:16:57.642Z,850
2018-05-24T05:18:19.717Z,870
2018-05-24T05:19:41.904Z,875
2018-05-24T05:21:03.997Z,890
2018-05-24T05:22:26.054Z,865
2018-05-24T05:23:48.028Z,880
2018-05-24T05:25:10.251Z,915
2018-05-24T05:26:31.933Z,900
2018-05-24T05:27:53.744Z,905
2018-05-24T05:29:15.785Z,905
2018-05-24T05:30:37.610Z,925
2018-05-24T05:31:59.404Z,920
2018-05-24T05:33:21.190Z,955
2018-05-24T05:34:43.251Z,940
2018-05-24T05:36:05.312Z,935
2018-05-24T05:37:27.123Z,940
2018-05-24T05:38:49.193Z,925
2018-05-24T05:40:10.981Z,885
2018-05-24T05:41:33.047Z,825
2018-05-24T05:42:55.125Z,800
2018-05-24T05:44:16.933Z,720
2018-05-24T05:45:38.993Z,695
2018-05-24T05:47:01.072Z,670
2018-05-24T05:48:22.612Z,645
2018-05-24T05:49:44.131Z,630
2018-05-24T05:51:07.195Z,605
2018-05-24T05:52:29.391Z,590
2018-05-24T05:53:51.450Z,595
2018-05-24T05:55:13.515Z,630
2018-05-24T05:56:35.578Z,660
2018-05-24T05:57:57.364Z,650
2018-05-24T05:59:19.428Z,615
2018-05-24T06:00:41.227Z,615
2018-05-24T06:02:03.651Z,630
2018-05-24T06:03:25.721Z,615
2018-05-24T06:04:47.799Z,605
2018-05-24T06:06:09.593Z,600
2018-05-24T06:07:31.660Z,600
2018-05-24T06:08:53.731Z,600
2018-05-24T06:10:15.806Z,595
2018-05-24T06:11:37.878Z,600
2018-05-24T06:12:59.936Z,605
2018-05-24T06:14:21.997Z,570
2018-05-24T06:15:44.209Z,535
2018-05-24T06:17:06.028Z,525
2018-05-24T06:18:27.821Z,525
2018-05-24T06:19:49.615Z,520
2018-05-24T06:21:11.162Z,525
2018-05-24T06:22:33.218Z,520
2018-05-24T06:23:55.266Z,515
2018-05-24T06:25:17.337Z,515
2018-05-24T06:26:39.412Z,515
2018-05-24T06:28:01.492Z,520
2018-05-24T06:29:23.557Z,520
2018-05-24T06:30:45.088Z,520
2018-05-24T06:32:07.146Z,520
2018-05-24T06:33:28.709Z,520
2018-05-24T06:34:50.805Z,520
2018-05-24T06:36:12.607Z,525
2018-05-24T06:37:34.892Z,530
2018-05-24T06:38:56.948Z,530
2018-05-24T06:40:18.761Z,525
2018-05-24T06:41:40.825Z,530
2018-05-24T06:43:02.893Z,535
2018-05-24T06:44:24.960Z,535
2018-05-24T06:45:46.507Z,530
2018-05-24T06:47:08.297Z,585
2018-05-24T06:48:30.358Z,630
2018-05-24T06:49:52.412Z,650
2018-05-24T06:51:14.469Z,585
2018-05-24T06:52:36.568Z,550
2018-05-24T06:53:58.959Z,555
2018-05-24T06:55:21.033Z,550
2018-05-24T06:56:43.099Z,545
2018-05-24T06:58:05.177Z,540
2018-05-24T06:59:26.961Z,545
2018-05-24T07:00:49.010Z,550
2018-05-24T07:02:10.837Z,545
2018-05-24T07:03:33.013Z,540
2018-05-24T07:04:55.085Z,550
2018-05-24T07:06:17.261Z,545
2018-05-24T07:07:39.464Z,540
2018-05-24T07:09:01.532Z,535
2018-05-24T07:10:22.866Z,530
2018-05-24T07:11:44.922Z,535
2018-05-24T07:13:06.465Z,535
2018-05-24T07:14:28.520Z,530
2018-05-24T07:15:50.595Z,540
2018-05-24T07:17:12.378Z,530
2018-05-24T07:18:34.595Z,540
2018-05-24T07:19:56.658Z,535
2018-05-24T07:21:18.716Z,530
2018-05-24T07:22:40.774Z,535
2018-05-24T07:24:02.822Z,520
2018-05-24T07:25:24.887Z,535
2018-05-24T07:26:46.712Z,530
2018-05-24T07:28:08.503Z,525
2018-05-24T07:29:30.313Z,525
2018-05-24T07:30:52.117Z,530
2018-05-24T07:32:13.775Z,530
2018-05-24T07:33:35.573Z,525
2018-05-24T07:34:57.372Z,530
2018-05-24T07:36:18.907Z,525
2018-05-24T07:37:40.785Z,520
2018-05-24T07:39:02.602Z,520
2018-05-24T07:40:24.184Z,520
2018-05-24T07:41:45.988Z,515
2018-05-24T07:43:08.059Z,505
2018-05-24T07:44:29.875Z,500
2018-05-24T07:45:51.965Z,485
2018-05-24T07:47:14.052Z,485
2018-05-24T07:48:35.872Z,485
2018-05-24T07:49:57.156Z,475
2018-05-24T07:51:19.209Z,475
2018-05-24T07:52:41.284Z,475
2018-05-24T07:54:03.335Z,470
2018-05-24T07:55:25.390Z,470
2018-05-24T07:56:47.463Z,465
2018-05-24T07:58:09.538Z,460
2018-05-24T07:59:30.823Z,460
2018-05-24T08:00:52.890Z,465
2018-05-24T08:02:14.949Z,465
2018-05-24T08:03:36.489Z,445
2018-05-24T08:04:58.027Z,460
2018-05-24T08:06:20.095Z,470
2018-05-24T08:07:42.164Z,450
2018-05-24T08:09:03.963Z,445
2018-05-24T08:10:25.760Z,430
2018-05-24T08:11:47.547Z,300
2018-05-24T08:13:09.357Z,245
2018-05-24T08:14:31.449Z,235
2018-05-24T08:15:53.536Z,230
2018-05-24T08:17:15.332Z,230
2018-05-24T08:18:37.129Z,220
2018-05-24T08:19:59.192Z,220
2018-05-24T08:21:21.257Z,215
2018-05-24T08:22:43.641Z,220
2018-05-24T08:24:04.925Z,215
2018-05-24T08:25:26.749Z,210
2018-05-24T08:26:48.816Z,210
2018-05-24T08:28:10.858Z,210
2018-05-24T08:29:32.918Z,210
2018-05-24T08:30:54.973Z,210
2018-05-24T08:32:16.774Z,210
2018-05-24T08:33:38.578Z,210
2018-05-24T08:35:00.718Z,210
2018-05-24T08:36:22.520Z,210
2018-05-24T08:37:44.588Z,210
2018-05-24T08:39:06.119Z,210
2018-05-24T08:40:27.903Z,210
2018-05-24T08:41:50.134Z,210
2018-05-24T08:43:12.192Z,210
2018-05-24T08:44:34.249Z,210
2018-05-24T08:45:56.314Z,210
2018-05-24T08:47:18.815Z,215
2018-05-24T08:48:40.869Z,210
2018-05-24T08:50:02.404Z,210
2018-05-24T08:51:24.190Z,210
2018-05-24T08:52:46.212Z,215
2018-05-24T08:54:08.254Z,215
2018-05-24T08:55:30.319Z,215
2018-05-24T08:56:52.357Z,215
2018-05-24T08:58:14.394Z,215
2018-05-24T08:59:36.190Z,215
2018-05-24T09:00:57.976Z,210
2018-05-24T09:02:19.761Z,210
2018-05-24T09:03:41.813Z,215
2018-05-24T09:05:03.606Z,215
2018-05-24T09:06:25.666Z,215
2018-05-24T09:07:47.738Z,215
2018-05-24T09:09:10.201Z,215
2018-05-24T09:10:32.387Z,215
2018-05-24T09:11:54.216Z,220
2018-05-24T09:13:16.281Z,220
2018-05-24T09:14:38.093Z,220
2018-05-24T09:16:00.166Z,220
2018-05-24T09:17:22.209Z,220
2018-05-24T09:18:44.000Z,215
2018-05-24T09:20:06.158Z,205
2018-05-24T09:22:00.296Z,210
2018-05-24T09:23:22.364Z,210
2018-05-24T09:24:44.159Z,210
2018-05-24T09:26:05.970Z,210
2018-05-24T09:27:28.029Z,205
2018-05-24T09:28:49.564Z,205
2018-05-24T09:30:11.366Z,205
2018-05-24T09:31:33.143Z,205
2018-05-24T09:32:55.192Z,200
2018-05-24T09:34:17.240Z,200
2018-05-24T09:35:39.033Z,200
2018-05-24T09:37:01.127Z,200
2018-05-24T09:38:23.170Z,200
2018-05-24T09:39:45.224Z,200
2018-05-24T09:41:07.306Z,200
2018-05-24T09:42:29.491Z,200
2018-05-24T09:43:51.557Z,200
2018-05-24T09:45:13.331Z,200
2018-05-24T09:46:35.130Z,200
2018-05-24T09:47:57.029Z,200
2018-05-24T09:49:19.092Z,200
2018-05-24T09:50:40.622Z,195
2018-05-24T09:52:02.416Z,195
2018-05-24T09:53:24.457Z,195
2018-05-24T09:54:45.990Z,195
2018-05-24T09:56:07.777Z,195
2018-05-24T09:57:29.573Z,190
2018-05-24T09:58:51.374Z,190
2018-05-24T10:00:13.428Z,190
2018-05-24T10:01:34.956Z,190
2018-05-24T10:02:56.732Z,190
2018-05-24T10:04:18.772Z,190
2018-05-24T10:05:40.566Z,185
2018-05-24T10:07:02.360Z,180
2018-05-24T10:08:24.436Z,180
2018-05-24T10:09:46.488Z,180
2018-05-24T10:11:08.276Z,175
2018-05-24T10:12:30.095Z,180
2018-05-24T10:13:52.155Z,180
2018-05-24T10:15:13.931Z,185
2018-05-24T10:16:36.334Z,185
2018-05-24T10:17:58.391Z,185
2018-05-24T10:19:20.443Z,180
2018-05-24T10:20:42.492Z,185
2018-05-24T10:22:04.557Z,185
2018-05-24T10:23:26.688Z,185
2018-05-24T10:24:48.755Z,185
2018-05-24T10:26:10.598Z,185
2018-05-24T10:27:32.672Z,190
2018-05-24T10:28:54.812Z,185
2018-05-24T10:30:16.861Z,180
2018-05-24T10:31:38.664Z,185
2018-05-24T10:33:00.737Z,190
2018-05-24T10:34:22.548Z,190
2018-05-24T10:35:44.601Z,190
2018-05-24T10:37:06.647Z,185
2018-05-24T10:38:28.428Z,185
2018-05-24T10:39:50.718Z,185
2018-05-24T10:41:12.541Z,190
2018-05-24T10:42:34.585Z,190
2018-05-24T10:43:56.661Z,195
2018-05-24T10:45:18.835Z,195
2018-05-24T10:46:40.984Z,195
2018-05-24T10:48:03.068Z,195
2018-05-24T10:49:25.155Z,200
2018-05-24T10:50:47.205Z,195
2018-05-24T10:52:09.246Z,200
2018-05-24T10:53:31.309Z,200
2018-05-24T10:54:53.095Z,200
2018-05-24T10:56:14.734Z,200
2018-05-24T10:57:36.783Z,205
2018-05-24T10:58:58.574Z,200
2018-05-24T11:00:20.635Z,200
2018-05-24T11:01:42.718Z,200
2018-05-24T11:03:04.999Z,205
2018-05-24T11:04:26.878Z,200
2018-05-24T11:05:48.608Z,200
2018-05-24T11:07:10.412Z,205
2018-05-24T11:08:32.480Z,210
2018-05-24T11:09:54.539Z,205
2018-05-24T11:11:16.613Z,205
2018-05-24T11:12:38.658Z,200
2018-05-24T11:14:00.450Z,205
2018-05-24T11:15:22.258Z,200
2018-05-24T11:16:44.315Z,210
2018-05-24T11:18:06.096Z,210
2018-05-24T11:19:28.155Z,215
2018-05-24T11:20:50.221Z,215
2018-05-24T11:22:12.285Z,215
2018-05-24T11:23:34.353Z,210
2018-05-24T11:24:56.158Z,215
2018-05-24T11:26:18.219Z,220
2018-05-24T11:27:40.274Z,225
2018-05-24T11:29:02.088Z,235
2018-05-24T11:30:24.122Z,245
2018-05-24T11:31:45.940Z,260
2018-05-24T11:33:08.012Z,280
2018-05-24T11:34:30.065Z,285
2018-05-24T11:35:52.100Z,300
2018-05-24T11:37:14.596Z,320
2018-05-24T11:38:36.675Z,330
2018-05-24T11:39:58.226Z,335
2018-05-24T11:41:20.288Z,345
2018-05-24T11:42:42.353Z,350
2018-05-24T11:44:04.166Z,355
2018-05-24T11:45:25.967Z,365
2018-05-24T11:46:47.514Z,375
2018-05-24T11:48:09.575Z,390
2018-05-24T11:49:31.409Z,405
2018-05-24T11:50:53.214Z,415
2018-05-24T11:52:15.254Z,430
2018-05-24T11:53:37.322Z,445
2018-05-24T11:54:59.400Z,460
2018-05-24T11:56:21.215Z,475
2018-05-24T11:57:43.276Z,480
2018-05-24T11:59:05.348Z,485
2018-05-24T12:00:27.402Z,495
2018-05-24T12:01:49.603Z,505
2018-05-24T12:03:11.696Z,510
2018-05-24T12:04:33.736Z,520
2018-05-24T12:05:55.825Z,525
2018-05-24T12:07:18.342Z,525
2018-05-24T12:08:39.885Z,520
2018-05-24T12:10:02.210Z,520
2018-05-24T12:11:24.271Z,515
2018-05-24T12:12:46.314Z,510
2018-05-24T12:14:07.959Z,500
2018-05-24T12:15:30.202Z,490
2018-05-24T12:16:52.020Z,480
2018-05-24T12:18:14.081Z,475
2018-05-24T12:19:35.873Z,470
2018-05-24T12:20:57.937Z,470
2018-05-24T12:22:19.991Z,475
2018-05-24T12:23:42.150Z,465
2018-05-24T12:25:04.215Z,465
2018-05-24T12:26:25.739Z,460
2018-05-24T12:27:47.808Z,455
2018-05-24T12:29:09.985Z,445
2018-05-24T12:30:32.134Z,435
2018-05-24T12:31:53.943Z,425
2018-05-24T12:33:16.003Z,415
2018-05-24T12:34:38.071Z,405
2018-05-24T12:35:59.965Z,400
2018-05-24T12:37:21.779Z,390
2018-05-24T12:38:43.834Z,380
2018-05-24T12:40:05.901Z,375
2018-05-24T12:41:27.686Z,375
2018-05-24T12:42:49.483Z,370
2018-05-24T12:44:11.290Z,370
2018-05-24T12:45:33.102Z,365
2018-05-24T12:46:54.915Z,360
2018-05-24T12:48:16.737Z,360
2018-05-24T12:49:38.526Z,355
2018-05-24T12:51:00.597Z,345
2018-05-24T12:52:22.664Z,340
2018-05-24T12:53:44.751Z,330
2018-05-24T12:55:06.808Z,320
2018-05-24T12:56:28.879Z,315
2018-05-24T12:57:51.065Z,310
2018-05-24T12:59:13.138Z,305
2018-05-24T13:00:35.212Z,290
2018-05-24T13:01:57.007Z,290
2018-05-24T13:03:19.072Z,275
2018-05-24T13:04:41.298Z,275
2018-05-24T13:06:03.376Z,270
2018-05-24T13:07:25.186Z,275
2018-05-24T13:08:47.116Z,265
2018-05-24T13:10:09.053Z,260
2018-05-24T13:11:31.364Z,260
2018-05-24T13:12:53.448Z,255
2018-05-24T13:14:15.262Z,255
2018-05-24T13:15:37.062Z,255
2018-05-24T13:16:59.167Z,255
2018-05-24T13:18:21.260Z,250
2018-05-24T13:19:43.352Z,255
2018-05-24T13:21:05.416Z,255
2018-05-24T13:22:27.492Z,255
2018-05-24T13:23:49.572Z,250
2018-05-24T13:25:11.652Z,250
2018-05-24T13:26:33.212Z,245
2018-05-24T13:27:55.290Z,250
2018-05-24T13:29:17.357Z,245
2018-05-24T13:30:39.433Z,245
2018-05-24T13:32:01.492Z,250
2018-05-24T13:33:23.556Z,245
2018-05-24T13:34:45.752Z,240
2018-05-24T13:36:07.839Z,230
2018-05-24T13:37:29.650Z,225
2018-05-24T13:38:51.467Z,210
2018-05-24T13:40:13.268Z,200
2018-05-24T13:41:35.079Z,205
2018-05-24T13:42:57.178Z,215
2018-05-24T13:44:18.976Z,205
2018-05-24T13:45:41.156Z,200
2018-05-24T13:47:03.215Z,205
2018-05-24T13:48:25.287Z,200
2018-05-24T13:49:47.374Z,195
2018-05-24T13:51:09.445Z,200
2018-05-24T13:52:31.542Z,200
2018-05-24T13:53:53.333Z,205
2018-05-24T13:55:15.127Z,200
2018-05-24T13:56:37.192Z,200
2018-05-24T13:57:59.249Z,205
2018-05-24T13:59:21.297Z,205
2018-05-24T14:00:43.384Z,200
2018-05-24T14:02:05.393Z,195
2018-05-24T14:03:27.459Z,195
2018-05-24T14:04:49.539Z,195
2018-05-24T14:06:11.590Z,195
2018-05-24T14:07:33.152Z,200
2018-05-24T14:08:55.203Z,200
2018-05-24T14:10:17.023Z,205
2018-05-24T14:11:38.802Z,210
2018-05-24T14:13:00.854Z,220
2018-05-24T14:14:22.973Z,225
2018-05-24T14:15:45.014Z,235
2018-05-24T14:17:07.110Z,240
2018-05-24T14:18:28.649Z,250
2018-05-24T14:19:50.182Z,260
2018-05-24T14:21:12.255Z,270
2018-05-24T14:22:34.333Z,280
2018-05-24T14:23:56.406Z,285
2018-05-24T14:25:18.180Z,285
2018-05-24T14:26:40.249Z,290
2018-05-24T14:28:02.060Z,295
2018-05-24T14:29:24.120Z,300
2018-05-24T14:30:46.202Z,305
2018-05-24T14:32:07.755Z,310
2018-05-24T14:33:29.810Z,310
2018-05-24T14:34:51.883Z,315
2018-05-24T14:36:13.938Z,320
2018-05-24T14:37:35.988Z,315
2018-05-24T14:38:58.041Z,325
2018-05-24T14:40:19.578Z,325
2018-05-24T14:41:41.637Z,330
2018-05-24T14:43:03.169Z,330
2018-05-24T14:44:24.950Z,330
2018-05-24T14:45:46.792Z,335
2018-05-24T14:47:08.604Z,335
2018-05-24T14:48:30.673Z,340
2018-05-24T14:49:51.940Z,340
2018-05-24T14:51:13.989Z,335
2018-05-24T14:52:36.057Z,330
2018-05-24T14:53:57.625Z,325
2018-05-24T14:55:19.687Z,325
2018-05-24T14:56:41.525Z,315
2018-05-24T14:58:03.345Z,305
2018-05-24T14:59:25.403Z,295
2018-05-24T15:00:47.468Z,285
2018-05-24T15:02:09.277Z,280
2018-05-24T15:03:31.376Z,275
2018-05-24T15:04:53.183Z,260
2018-05-24T15:06:15.005Z,255
2018-05-24T15:07:37.065Z,245
2018-05-24T15:08:59.163Z,240
2018-05-24T15:10:21.226Z,235
2018-05-24T15:11:42.806Z,235
2018-05-24T15:13:04.869Z,230
2018-05-24T15:14:26.689Z,225
2018-05-24T15:15:48.224Z,220
2018-05-24T15:17:10.064Z,220
2018-05-24T15:18:32.630Z,220
2018-05-24T15:19:54.765Z,220
2018-05-24T15:21:16.836Z,225
2018-05-24T15:22:38.657Z,225
2018-05-24T15:24:00.485Z,225
2018-05-24T15:25:22.551Z,230
2018-05-24T15:26:44.610Z,230
2018-05-24T15:28:06.677Z,230
2018-05-24T15:29:28.469Z,225
2018-05-24T15:30:50.290Z,225
2018-05-24T15:32:12.363Z,220
2018-05-24T15:33:34.531Z,215
2018-05-24T15:34:56.339Z,210
2018-05-24T15:36:18.399Z,210
2018-05-24T15:37:40.203Z,210
2018-05-24T15:39:02.270Z,210
2018-05-24T15:40:24.088Z,205
2018-05-24T15:41:46.178Z,200
2018-05-24T15:43:07.980Z,195
2018-05-24T15:44:30.050Z,195
2018-05-24T15:45:52.122Z,195
2018-05-24T15:47:14.171Z,190
2018-05-24T15:48:36.250Z,190
2018-05-24T15:49:58.331Z,190
2018-05-24T15:51:20.126Z,190
2018-05-24T15:52:41.935Z,195
2018-05-24T15:54:04.020Z,190
2018-05-24T15:55:26.066Z,190
2018-05-24T15:56:47.852Z,190
2018-05-24T15:58:09.931Z,190
2018-05-24T15:59:31.987Z,190
2018-05-24T16:00:53.787Z,190
2018-05-24T16:02:15.590Z,190
2018-05-24T16:03:37.686Z,190
2018-05-24T16:04:59.753Z,190
2018-05-24T16:06:21.593Z,190
2018-05-24T16:07:43.643Z,195
2018-05-24T16:09:05.193Z,195
2018-05-24T16:10:27.273Z,195
2018-05-24T16:11:49.363Z,200
2018-05-24T16:13:11.418Z,200
2018-05-24T16:14:33.241Z,210
2018-05-24T16:15:55.053Z,205
2018-05-24T16:17:16.595Z,205
2018-05-24T16:18:38.673Z,210
2018-05-24T16:20:00.735Z,210
2018-05-24T16:21:22.532Z,210
2018-05-24T16:22:44.642Z,215
2018-05-24T16:24:06.201Z,215
2018-05-24T16:25:27.221Z,215
2018-05-24T16:26:49.376Z,215
2018-05-24T16:28:11.432Z,215
2018-05-24T16:29:33.032Z,210
2018-05-24T16:30:55.140Z,210
2018-05-24T16:32:17.224Z,205
2018-05-24T16:33:39.348Z,200
2018-05-24T16:35:01.488Z,200
2018-05-24T16:36:23.353Z,190
2018-05-24T16:37:45.452Z,185
2018-05-24T16:39:39.403Z,170
2018-05-24T16:41:01.226Z,165
2018-05-24T16:42:23.044Z,165
2018-05-24T16:43:44.663Z,165
2018-05-24T16:45:06.471Z,160
2018-05-24T16:46:28.613Z,155
2018-05-24T16:47:50.703Z,155
2018-05-24T16:49:12.845Z,150
2018-05-24T16:50:34.926Z,150
2018-05-24T16:51:56.763Z,150
2018-05-24T16:53:18.577Z,150
2018-05-24T16:54:41.005Z,150
2018-05-24T16:56:02.553Z,150
2018-05-24T16:57:24.621Z,150
2018-05-24T16:58:46.704Z,150
2018-05-24T17:00:08.510Z,150
2018-05-24T17:01:30.590Z,150
2018-05-24T17:02:52.694Z,150
2018-05-24T17:04:14.521Z,150
2018-05-24T17:05:36.617Z,150
2018-05-24T17:06:58.420Z,150
2018-05-24T17:08:20.229Z,150
2018-05-24T17:09:42.304Z,145
2018-05-24T17:11:04.362Z,145
2018-05-24T17:12:26.184Z,145
2018-05-24T17:13:48.264Z,145
2018-05-24T17:15:10.095Z,140
2018-05-24T17:16:31.893Z,140
2018-05-24T17:17:53.718Z,140
2018-05-24T17:19:15.816Z,140
2018-05-24T17:20:37.910Z,135
2018-05-24T17:21:59.723Z,135
2018-05-24T17:23:21.551Z,140
2018-05-24T17:24:43.117Z,135
2018-05-24T17:26:04.672Z,135
2018-05-24T17:27:26.226Z,135
2018-05-24T17:28:48.154Z,135
2018-05-24T17:30:10.255Z,135
2018-05-24T17:31:32.346Z,135
2018-05-24T17:32:54.503Z,135
2018-05-24T17:34:16.309Z,135
2018-05-24T17:35:38.146Z,135
2018-05-24T17:37:00.251Z,130
2018-05-24T17:38:22.079Z,130
2018-05-24T17:39:43.922Z,130
2018-05-24T17:41:05.747Z,130
2018-05-24T17:42:27.301Z,130
2018-05-24T17:43:49.488Z,130
2018-05-24T17:45:11.591Z,130
2018-05-24T17:46:33.678Z,130
2018-05-24T17:47:55.505Z,125
2018-05-24T17:49:17.104Z,125
2018-05-24T17:50:39.205Z,125
2018-05-24T17:52:01.318Z,125
2018-05-24T17:53:23.215Z,120
2018-05-24T17:54:45.348Z,120
2018-05-24T17:56:07.566Z,115
2018-05-24T17:57:29.240Z,115
2018-05-24T17:58:51.342Z,110
2018-05-24T18:00:13.252Z,110
2018-05-24T18:01:35.135Z,105
2018-05-24T18:02:57.344Z,105
2018-05-24T18:04:19.174Z,105
2018-05-24T18:05:41.030Z,100
2018-05-24T18:07:03.158Z,100
2018-05-24T18:08:25.282Z,95
2018-05-24T18:09:47.074Z,95
2018-05-24T18:11:08.979Z,90
2018-05-24T18:12:31.176Z,90
2018-05-24T18:13:53.059Z,90
2018-05-24T18:15:15.056Z,85
2018-05-24T18:16:37.264Z,85
2018-05-24T18:17:58.955Z,80
2018-05-24T18:19:21.153Z,80
2018-05-24T18:20:43.427Z,80
2018-05-24T18:22:05.770Z,75
2018-05-24T18:23:28.065Z,75
2018-05-24T18:24:50.330Z,75
2018-05-24T18:26:12.605Z,70
2018-05-24T18:27:35.025Z,70
2018-05-24T18:28:57.342Z,70
2018-05-24T18:30:19.053Z,65
2018-05-24T18:31:41.172Z,65
2018-05-24T18:33:03.478Z,65
2018-05-24T18:34:25.846Z,65
2018-05-24T18:35:48.195Z,65
2018-05-24T18:37:10.428Z,65
2018-05-24T18:38:32.453Z,65
2018-05-24T18:39:54.878Z,60
2018-05-24T18:41:16.888Z,60
2018-05-24T18:42:39.200Z,60
2018-05-24T18:44:01.248Z,55
2018-05-24T18:45:23.382Z,55
2018-05-24T18:46:45.683Z,55
2018-05-24T18:48:07.710Z,55
2018-05-24T18:49:30.116Z,50
2018-05-24T18:50:52.374Z,50
2018-05-24T18:52:14.657Z,50
2018-05-24T18:53:37.016Z,50
2018-05-24T18:54:59.374Z,45
2018-05-24T18:56:21.515Z,45
2018-05-24T18:57:43.378Z,45
2018-05-24T18:59:05.920Z,45
2018-05-24T19:00:28.257Z,40
2018-05-24T19:01:50.584Z,40
2018-05-24T19:03:12.633Z,40
2018-05-24T19:04:34.991Z,35
2018-05-24T19:05:57.335Z,35
2018-05-24T19:07:19.500Z,35
2018-05-24T19:08:41.273Z,30
2018-05-24T19:10:03.635Z,30
2018-05-24T19:11:25.926Z,30
2018-05-24T19:12:48.331Z,25
2018-05-24T19:14:10.716Z,25
2018-05-24T19:15:32.805Z,25
2018-05-24T19:16:54.816Z,20
2018-05-24T19:18:16.983Z,20
2018-05-24T19:19:39.162Z,20